sensor_id;sensor_type;location;lat;lon;timestamp;P1;durP1;ratioP1;P2;durP2;ratioP2
9938;SDS011;5008;50.656;7.188;2023-08-06T00:01:44;4.07;;;3.67;;
9938;SDS011;5008;50.656;7.188;2023-08-06T00:04:11;3.53;;;3.22;;
9938;SDS011;5008;50.656;7.188;2023-08-06T00:06:39;3.85;;;3.22;;
9938;SDS011;5008;50.656;7.188;2023-08-06T00:09:06;3.80;;;3.38;;
9938;SDS011;5008;50.656;7.188;2023-08-06T00:11:33;4.47;;;3.10;;
9938;SDS011;5008;50.656;7.188;2023-08-06T00:14:00;3.22;;;2.92;;
9938;SDS011;5008;50.656;7.188;2023-08-06T00:16:26;3.90;;;3.50;;
9938;SDS011;5008;50.656;7.188;2023-08-06T00:18:59;3.22;;;2.83;;
9938;SDS011;5008;50.656;7.188;2023-08-06T00:21:27;3.80;;;3.03;;
9938;SDS011;5008;50.656;7.188;2023-08-06T00:23:55;3.30;;;3.00;;
9938;SDS011;5008;50.656;7.188;2023-08-06T00:26:22;3.38;;;2.90;;
9938;SDS011;5008;50.656;7.188;2023-08-06T00:28:49;2.85;;;2.65;;
9938;SDS011;5008;50.656;7.188;2023-08-06T00:31:16;4.35;;;3.13;;
9938;SDS011;5008;50.656;7.188;2023-08-06T00:33:43;3.22;;;2.60;;
9938;SDS011;5008;50.656;7.188;2023-08-06T00:36:10;2.95;;;2.75;;
9938;SDS011;5008;50.656;7.188;2023-08-06T00:38:37;3.85;;;2.70;;
9938;SDS011;5008;50.656;7.188;2023-08-06T00:41:05;3.88;;;3.10;;
9938;SDS011;5008;50.656;7.188;2023-08-06T00:43:32;3.17;;;2.88;;
9938;SDS011;5008;50.656;7.188;2023-08-06T00:45:59;3.15;;;2.58;;
9938;SDS011;5008;50.656;7.188;2023-08-06T00:48:26;3.30;;;3.03;;
9938;SDS011;5008;50.656;7.188;2023-08-06T00:50:53;3.03;;;2.72;;
9938;SDS011;5008;50.656;7.188;2023-08-06T00:53:20;2.70;;;2.50;;
9938;SDS011;5008;50.656;7.188;2023-08-06T00:55:47;4.88;;;3.00;;
9938;SDS011;5008;50.656;7.188;2023-08-06T00:58:16;4.65;;;4.22;;
9938;SDS011;5008;50.656;7.188;2023-08-06T01:00:43;4.20;;;3.80;;
9938;SDS011;5008;50.656;7.188;2023-08-06T01:03:10;3.58;;;3.20;;
9938;SDS011;5008;50.656;7.188;2023-08-06T01:05:37;5.35;;;4.28;;
9938;SDS011;5008;50.656;7.188;2023-08-06T01:08:10;4.13;;;3.53;;
9938;SDS011;5008;50.656;7.188;2023-08-06T01:10:46;3.67;;;3.00;;
9938;SDS011;5008;50.656;7.188;2023-08-06T01:13:26;3.22;;;3.03;;
9938;SDS011;5008;50.656;7.188;2023-08-06T01:15:59;2.70;;;2.50;;
9938;SDS011;5008;50.656;7.188;2023-08-06T01:18:27;3.10;;;2.80;;
9938;SDS011;5008;50.656;7.188;2023-08-06T01:20:55;2.80;;;2.60;;
9938;SDS011;5008;50.656;7.188;2023-08-06T01:23:22;2.95;;;2.75;;
9938;SDS011;5008;50.656;7.188;2023-08-06T01:25:53;2.85;;;2.60;;
9938;SDS011;5008;50.656;7.188;2023-08-06T01:28:27;2.72;;;2.53;;
9938;SDS011;5008;50.656;7.188;2023-08-06T01:31:00;2.92;;;2.72;;
9938;SDS011;5008;50.656;7.188;2023-08-06T01:33:31;3.70;;;2.80;;
9938;SDS011;5008;50.656;7.188;2023-08-06T01:36:02;2.88;;;2.42;;
9938;SDS011;5008;50.656;7.188;2023-08-06T01:38:30;2.97;;;2.78;;
9938;SDS011;5008;50.656;7.188;2023-08-06T01:40:57;3.20;;;2.90;;
9938;SDS011;5008;50.656;7.188;2023-08-06T01:43:23;3.20;;;3.00;;
9938;SDS011;5008;50.656;7.188;2023-08-06T01:45:50;3.50;;;3.10;;
9938;SDS011;5008;50.656;7.188;2023-08-06T01:48:17;3.20;;;2.90;;
9938;SDS011;5008;50.656;7.188;2023-08-06T01:50:44;3.00;;;2.70;;
9938;SDS011;5008;50.656;7.188;2023-08-06T01:53:12;3.30;;;3.00;;
9938;SDS011;5008;50.656;7.188;2023-08-06T01:55:39;2.83;;;2.50;;
9938;SDS011;5008;50.656;7.188;2023-08-06T01:58:05;3.33;;;3.03;;
9938;SDS011;5008;50.656;7.188;2023-08-06T03:02:42;3.95;;;3.20;;
9938;SDS011;5008;50.656;7.188;2023-08-06T03:05:10;3.15;;;2.85;;
9938;SDS011;5008;50.656;7.188;2023-08-06T03:07:37;3.30;;;2.90;;
9938;SDS011;5008;50.656;7.188;2023-08-06T03:10:04;3.53;;;2.70;;
9938;SDS011;5008;50.656;7.188;2023-08-06T03:12:31;3.00;;;2.50;;
9938;SDS011;5008;50.656;7.188;2023-08-06T03:14:58;2.95;;;2.65;;
9938;SDS011;5008;50.656;7.188;2023-08-06T03:17:25;3.10;;;2.70;;
9938;SDS011;5008;50.656;7.188;2023-08-06T03:19:53;2.75;;;2.53;;
9938;SDS011;5008;50.656;7.188;2023-08-06T03:22:20;3.20;;;2.00;;
9938;SDS011;5008;50.656;7.188;2023-08-06T03:24:49;2.55;;;2.35;;
9938;SDS011;5008;50.656;7.188;2023-08-06T03:27:16;3.45;;;2.25;;
9938;SDS011;5008;50.656;7.188;2023-08-06T03:29:43;2.60;;;2.40;;
9938;SDS011;5008;50.656;7.188;2023-08-06T03:32:10;2.67;;;2.47;;
9938;SDS011;5008;50.656;7.188;2023-08-06T03:34:42;3.03;;;2.45;;
9938;SDS011;5008;50.656;7.188;2023-08-06T03:37:11;2.17;;;1.98;;
9938;SDS011;5008;50.656;7.188;2023-08-06T03:39:37;2.47;;;2.28;;
9938;SDS011;5008;50.656;7.188;2023-08-06T03:42:04;3.05;;;2.35;;
9938;SDS011;5008;50.656;7.188;2023-08-06T03:44:31;1.95;;;1.85;;
9938;SDS011;5008;50.656;7.188;2023-08-06T03:46:58;1.92;;;1.83;;
9938;SDS011;5008;50.656;7.188;2023-08-06T03:49:25;2.92;;;2.63;;
9938;SDS011;5008;50.656;7.188;2023-08-06T03:51:52;2.58;;;2.20;;
9938;SDS011;5008;50.656;7.188;2023-08-06T03:54:20;2.67;;;2.28;;
9938;SDS011;5008;50.656;7.188;2023-08-06T03:56:46;2.20;;;2.00;;
9938;SDS011;5008;50.656;7.188;2023-08-06T03:59:13;3.33;;;2.20;;
9938;SDS011;5008;50.656;7.188;2023-08-06T04:01:40;3.22;;;2.05;;
9938;SDS011;5008;50.656;7.188;2023-08-06T04:04:07;3.60;;;2.10;;
9938;SDS011;5008;50.656;7.188;2023-08-06T04:06:33;2.20;;;2.10;;
9938;SDS011;5008;50.656;7.188;2023-08-06T04:09:00;4.32;;;1.90;;
9938;SDS011;5008;50.656;7.188;2023-08-06T04:11:30;3.65;;;1.90;;
9938;SDS011;5008;50.656;7.188;2023-08-06T04:13:56;2.50;;;2.30;;
9938;SDS011;5008;50.656;7.188;2023-08-06T04:16:23;2.25;;;2.05;;
9938;SDS011;5008;50.656;7.188;2023-08-06T04:18:57;4.53;;;2.30;;
9938;SDS011;5008;50.656;7.188;2023-08-06T04:21:24;3.17;;;2.08;;
9938;SDS011;5008;50.656;7.188;2023-08-06T04:23:50;2.38;;;2.00;;
9938;SDS011;5008;50.656;7.188;2023-08-06T04:26:17;2.33;;;2.13;;
9938;SDS011;5008;50.656;7.188;2023-08-06T04:28:45;2.50;;;2.05;;
9938;SDS011;5008;50.656;7.188;2023-08-06T04:31:12;2.35;;;2.15;;
9938;SDS011;5008;50.656;7.188;2023-08-06T04:33:39;2.33;;;2.00;;
9938;SDS011;5008;50.656;7.188;2023-08-06T04:36:06;3.25;;;2.10;;
9938;SDS011;5008;50.656;7.188;2023-08-06T04:38:33;3.30;;;2.40;;
9938;SDS011;5008;50.656;7.188;2023-08-06T04:41:00;1.92;;;1.83;;
9938;SDS011;5008;50.656;7.188;2023-08-06T04:43:28;2.10;;;1.90;;
9938;SDS011;5008;50.656;7.188;2023-08-06T04:45:56;3.55;;;2.33;;
9938;SDS011;5008;50.656;7.188;2023-08-06T04:48:23;2.25;;;2.05;;
9938;SDS011;5008;50.656;7.188;2023-08-06T04:50:50;2.35;;;2.10;;
9938;SDS011;5008;50.656;7.188;2023-08-06T04:53:17;2.40;;;2.03;;
9938;SDS011;5008;50.656;7.188;2023-08-06T04:55:44;2.10;;;1.90;;
9938;SDS011;5008;50.656;7.188;2023-08-06T04:58:12;1.80;;;1.70;;
9938;SDS011;5008;50.656;7.188;2023-08-06T05:00:39;1.85;;;1.75;;
9938;SDS011;5008;50.656;7.188;2023-08-06T05:03:07;2.15;;;1.98;;
9938;SDS011;5008;50.656;7.188;2023-08-06T05:05:34;2.08;;;1.88;;
9938;SDS011;5008;50.656;7.188;2023-08-06T05:08:01;2.15;;;1.70;;
9938;SDS011;5008;50.656;7.188;2023-08-06T05:10:28;2.10;;;1.90;;
9938;SDS011;5008;50.656;7.188;2023-08-06T05:12:54;1.90;;;1.80;;
9938;SDS011;5008;50.656;7.188;2023-08-06T05:15:21;2.97;;;2.38;;
9938;SDS011;5008;50.656;7.188;2023-08-06T05:17:50;3.33;;;2.03;;
9938;SDS011;5008;50.656;7.188;2023-08-06T05:20:18;2.15;;;1.90;;
9938;SDS011;5008;50.656;7.188;2023-08-06T05:22:46;2.78;;;2.05;;
9938;SDS011;5008;50.656;7.188;2023-08-06T05:25:21;2.47;;;1.90;;
9938;SDS011;5008;50.656;7.188;2023-08-06T05:27:48;2.40;;;2.10;;
9938;SDS011;5008;50.656;7.188;2023-08-06T05:30:15;2.40;;;2.20;;
9938;SDS011;5008;50.656;7.188;2023-08-06T05:32:42;3.08;;;1.95;;
9938;SDS011;5008;50.656;7.188;2023-08-06T05:35:11;2.30;;;2.10;;
9938;SDS011;5008;50.656;7.188;2023-08-06T05:37:39;3.63;;;2.10;;
9938;SDS011;5008;50.656;7.188;2023-08-06T05:40:06;2.20;;;2.00;;
9938;SDS011;5008;50.656;7.188;2023-08-06T05:42:33;3.15;;;1.80;;
9938;SDS011;5008;50.656;7.188;2023-08-06T05:45:00;2.40;;;1.80;;
9938;SDS011;5008;50.656;7.188;2023-08-06T05:47:27;1.70;;;1.52;;
9938;SDS011;5008;50.656;7.188;2023-08-06T05:49:54;3.10;;;1.70;;
9938;SDS011;5008;50.656;7.188;2023-08-06T05:52:21;2.13;;;1.60;;
9938;SDS011;5008;50.656;7.188;2023-08-06T05:54:49;1.45;;;1.35;;
9938;SDS011;5008;50.656;7.188;2023-08-06T05:57:16;1.52;;;1.42;;
9938;SDS011;5008;50.656;7.188;2023-08-06T05:59:43;1.30;;;1.20;;
9938;SDS011;5008;50.656;7.188;2023-08-06T06:02:09;1.50;;;1.40;;
9938;SDS011;5008;50.656;7.188;2023-08-06T06:04:36;1.55;;;1.33;;
9938;SDS011;5008;50.656;7.188;2023-08-06T06:07:03;1.75;;;1.10;;
9938;SDS011;5008;50.656;7.188;2023-08-06T06:09:30;0.95;;;0.93;;
9938;SDS011;5008;50.656;7.188;2023-08-06T06:11:58;1.30;;;1.20;;
9938;SDS011;5008;50.656;7.188;2023-08-06T06:14:25;1.35;;;1.20;;
9938;SDS011;5008;50.656;7.188;2023-08-06T06:16:52;1.77;;;1.15;;
9938;SDS011;5008;50.656;7.188;2023-08-06T06:19:19;1.35;;;1.15;;
9938;SDS011;5008;50.656;7.188;2023-08-06T06:21:46;1.05;;;1.00;;
9938;SDS011;5008;50.656;7.188;2023-08-06T06:24:12;0.95;;;0.95;;
9938;SDS011;5008;50.656;7.188;2023-08-06T06:26:40;2.47;;;1.23;;
9938;SDS011;5008;50.656;7.188;2023-08-06T06:29:08;1.48;;;1.35;;
9938;SDS011;5008;50.656;7.188;2023-08-06T06:31:35;2.58;;;1.50;;
9938;SDS011;5008;50.656;7.188;2023-08-06T06:34:02;1.73;;;1.30;;
9938;SDS011;5008;50.656;7.188;2023-08-06T06:36:28;2.17;;;1.27;;
9938;SDS011;5008;50.656;7.188;2023-08-06T06:38:55;2.13;;;1.58;;
9938;SDS011;5008;50.656;7.188;2023-08-06T06:41:22;1.55;;;1.40;;
9938;SDS011;5008;50.656;7.188;2023-08-06T06:43:49;2.50;;;1.30;;
9938;SDS011;5008;50.656;7.188;2023-08-06T06:46:17;1.55;;;1.45;;
9938;SDS011;5008;50.656;7.188;2023-08-06T06:48:44;1.77;;;1.60;;
9938;SDS011;5008;50.656;7.188;2023-08-06T06:51:10;1.65;;;1.55;;
9938;SDS011;5008;50.656;7.188;2023-08-06T06:53:54;2.15;;;1.60;;
9938;SDS011;5008;50.656;7.188;2023-08-06T06:56:27;1.70;;;1.30;;
9938;SDS011;5008;50.656;7.188;2023-08-06T06:58:53;1.55;;;1.45;;
9938;SDS011;5008;50.656;7.188;2023-08-06T07:01:21;1.45;;;1.35;;
9938;SDS011;5008;50.656;7.188;2023-08-06T07:03:56;1.10;;;1.00;;
9938;SDS011;5008;50.656;7.188;2023-08-06T07:06:23;1.52;;;1.42;;
9938;SDS011;5008;50.656;7.188;2023-08-06T07:08:50;1.50;;;1.40;;
9938;SDS011;5008;50.656;7.188;2023-08-06T07:11:17;1.63;;;1.52;;
9938;SDS011;5008;50.656;7.188;2023-08-06T07:13:43;3.38;;;2.28;;
9938;SDS011;5008;50.656;7.188;2023-08-06T07:16:10;2.35;;;1.65;;
9938;SDS011;5008;50.656;7.188;2023-08-06T07:18:38;1.33;;;1.13;;
9938;SDS011;5008;50.656;7.188;2023-08-06T07:21:05;1.60;;;1.50;;
9938;SDS011;5008;50.656;7.188;2023-08-06T07:23:33;1.95;;;1.40;;
9938;SDS011;5008;50.656;7.188;2023-08-06T07:26:00;1.23;;;1.10;;
9938;SDS011;5008;50.656;7.188;2023-08-06T07:28:26;1.48;;;1.38;;
9938;SDS011;5008;50.656;7.188;2023-08-06T07:30:53;1.30;;;1.25;;
9938;SDS011;5008;50.656;7.188;2023-08-06T07:33:28;1.10;;;1.05;;
9938;SDS011;5008;50.656;7.188;2023-08-06T07:35:56;1.88;;;1.40;;
9938;SDS011;5008;50.656;7.188;2023-08-06T07:38:23;1.40;;;1.30;;
9938;SDS011;5008;50.656;7.188;2023-08-06T07:41:09;2.53;;;1.40;;
9938;SDS011;5008;50.656;7.188;2023-08-06T07:43:36;1.35;;;1.25;;
9938;SDS011;5008;50.656;7.188;2023-08-06T07:46:10;1.70;;;1.58;;
9938;SDS011;5008;50.656;7.188;2023-08-06T07:48:38;2.03;;;1.30;;
9938;SDS011;5008;50.656;7.188;2023-08-06T07:51:06;1.60;;;1.30;;
9938;SDS011;5008;50.656;7.188;2023-08-06T07:53:33;1.50;;;1.40;;
9938;SDS011;5008;50.656;7.188;2023-08-06T07:56:00;2.08;;;1.40;;
9938;SDS011;5008;50.656;7.188;2023-08-06T07:58:27;1.60;;;1.50;;
9938;SDS011;5008;50.656;7.188;2023-08-06T08:00:54;2.00;;;1.45;;
9938;SDS011;5008;50.656;7.188;2023-08-06T08:03:21;1.58;;;1.30;;
9938;SDS011;5008;50.656;7.188;2023-08-06T08:05:49;2.30;;;1.25;;
9938;SDS011;5008;50.656;7.188;2023-08-06T08:08:18;1.55;;;1.40;;
9938;SDS011;5008;50.656;7.188;2023-08-06T08:10:47;1.27;;;1.27;;
9938;SDS011;5008;50.656;7.188;2023-08-06T08:13:15;1.30;;;1.20;;
9938;SDS011;5008;50.656;7.188;2023-08-06T08:15:42;1.58;;;1.48;;
9938;SDS011;5008;50.656;7.188;2023-08-06T08:18:08;1.30;;;1.20;;
9938;SDS011;5008;50.656;7.188;2023-08-06T08:20:35;1.75;;;1.63;;
9938;SDS011;5008;50.656;7.188;2023-08-06T08:23:02;1.90;;;1.80;;
9938;SDS011;5008;50.656;7.188;2023-08-06T08:25:30;1.50;;;1.40;;
9938;SDS011;5008;50.656;7.188;2023-08-06T08:28:00;1.90;;;1.60;;
9938;SDS011;5008;50.656;7.188;2023-08-06T08:30:26;1.48;;;1.38;;
9938;SDS011;5008;50.656;7.188;2023-08-06T08:32:53;1.70;;;1.55;;
9938;SDS011;5008;50.656;7.188;2023-08-06T08:35:20;2.78;;;1.60;;
9938;SDS011;5008;50.656;7.188;2023-08-06T08:37:47;1.10;;;1.10;;
9938;SDS011;5008;50.656;7.188;2023-08-06T08:40:14;1.67;;;1.30;;
9938;SDS011;5008;50.656;7.188;2023-08-06T08:42:43;1.60;;;1.50;;
9938;SDS011;5008;50.656;7.188;2023-08-06T08:45:11;1.60;;;1.50;;
9938;SDS011;5008;50.656;7.188;2023-08-06T08:47:39;1.45;;;1.38;;
9938;SDS011;5008;50.656;7.188;2023-08-06T08:50:07;1.55;;;1.40;;
9938;SDS011;5008;50.656;7.188;2023-08-06T08:52:35;1.48;;;1.38;;
9938;SDS011;5008;50.656;7.188;2023-08-06T08:55:04;1.63;;;1.52;;
9938;SDS011;5008;50.656;7.188;2023-08-06T08:57:32;1.60;;;1.50;;
9938;SDS011;5008;50.656;7.188;2023-08-06T09:00:01;1.70;;;1.60;;
9938;SDS011;5008;50.656;7.188;2023-08-06T09:02:28;2.10;;;1.40;;
9938;SDS011;5008;50.656;7.188;2023-08-06T09:04:56;1.25;;;1.20;;
9938;SDS011;5008;50.656;7.188;2023-08-06T09:07:27;1.70;;;1.60;;
9938;SDS011;5008;50.656;7.188;2023-08-06T09:09:58;1.80;;;1.70;;
9938;SDS011;5008;50.656;7.188;2023-08-06T09:12:30;2.35;;;1.88;;
9938;SDS011;5008;50.656;7.188;2023-08-06T09:14:57;1.65;;;1.55;;
9938;SDS011;5008;50.656;7.188;2023-08-06T09:17:25;1.33;;;1.23;;
9938;SDS011;5008;50.656;7.188;2023-08-06T09:19:53;1.80;;;1.70;;
9938;SDS011;5008;50.656;7.188;2023-08-06T09:22:20;1.50;;;1.45;;
9938;SDS011;5008;50.656;7.188;2023-08-06T09:24:47;1.65;;;1.55;;
9938;SDS011;5008;50.656;7.188;2023-08-06T09:27:14;1.65;;;1.52;;
9938;SDS011;5008;50.656;7.188;2023-08-06T09:29:41;1.88;;;1.70;;
9938;SDS011;5008;50.656;7.188;2023-08-06T09:32:10;1.67;;;1.58;;
9938;SDS011;5008;50.656;7.188;2023-08-06T09:34:39;0.70;;;0.70;;
9938;SDS011;5008;50.656;7.188;2023-08-06T09:37:08;1.55;;;0.65;;
9938;SDS011;5008;50.656;7.188;2023-08-06T09:39:39;0.57;;;0.57;;
9938;SDS011;5008;50.656;7.188;2023-08-06T09:42:07;0.73;;;0.73;;
9938;SDS011;5008;50.656;7.188;2023-08-06T09:44:34;0.93;;;0.70;;
9938;SDS011;5008;50.656;7.188;2023-08-06T09:47:01;0.63;;;0.57;;
9938;SDS011;5008;50.656;7.188;2023-08-06T09:49:41;0.55;;;0.43;;
9938;SDS011;5008;50.656;7.188;2023-08-06T09:52:10;0.38;;;0.38;;
9938;SDS011;5008;50.656;7.188;2023-08-06T09:54:39;0.65;;;0.20;;
9938;SDS011;5008;50.656;7.188;2023-08-06T09:57:09;0.82;;;0.25;;
9938;SDS011;5008;50.656;7.188;2023-08-06T09:59:37;0.22;;;0.22;;
9938;SDS011;5008;50.656;7.188;2023-08-06T10:02:10;0.40;;;0.40;;
9938;SDS011;5008;50.656;7.188;2023-08-06T10:04:39;0.13;;;0.10;;
9938;SDS011;5008;50.656;7.188;2023-08-06T10:07:08;1.30;;;0.40;;
9938;SDS011;5008;50.656;7.188;2023-08-06T10:09:35;0.30;;;0.30;;
9938;SDS011;5008;50.656;7.188;2023-08-06T10:12:02;0.50;;;0.50;;
9938;SDS011;5008;50.656;7.188;2023-08-06T10:14:38;0.47;;;0.47;;
9938;SDS011;5008;50.656;7.188;2023-08-06T10:17:06;0.30;;;0.30;;
9938;SDS011;5008;50.656;7.188;2023-08-06T10:19:34;0.50;;;0.50;;
9938;SDS011;5008;50.656;7.188;2023-08-06T10:22:15;0.50;;;0.50;;
9938;SDS011;5008;50.656;7.188;2023-08-06T10:24:49;0.88;;;0.80;;
9938;SDS011;5008;50.656;7.188;2023-08-06T10:27:21;0.70;;;0.70;;
9938;SDS011;5008;50.656;7.188;2023-08-06T10:29:48;0.60;;;0.60;;
9938;SDS011;5008;50.656;7.188;2023-08-06T10:32:17;0.77;;;0.77;;
9938;SDS011;5008;50.656;7.188;2023-08-06T10:34:54;1.23;;;0.90;;
9938;SDS011;5008;50.656;7.188;2023-08-06T10:37:23;1.13;;;1.10;;
9938;SDS011;5008;50.656;7.188;2023-08-06T10:40:00;3.33;;;1.15;;
9938;SDS011;5008;50.656;7.188;2023-08-06T10:45:11;1.30;;;1.20;;
9938;SDS011;5008;50.656;7.188;2023-08-06T10:47:40;2.13;;;1.00;;
9938;SDS011;5008;50.656;7.188;2023-08-06T10:50:07;1.93;;;1.40;;
9938;SDS011;5008;50.656;7.188;2023-08-06T10:52:38;1.30;;;1.20;;
9938;SDS011;5008;50.656;7.188;2023-08-06T10:55:05;1.40;;;1.20;;
9938;SDS011;5008;50.656;7.188;2023-08-06T10:57:34;1.27;;;1.17;;
9938;SDS011;5008;50.656;7.188;2023-08-06T11:00:04;2.57;;;1.27;;
9938;SDS011;5008;50.656;7.188;2023-08-06T11:02:33;2.17;;;1.27;;
9938;SDS011;5008;50.656;7.188;2023-08-06T11:07:39;1.90;;;1.00;;
9938;SDS011;5008;50.656;7.188;2023-08-06T11:10:11;1.40;;;1.10;;
9938;SDS011;5008;50.656;7.188;2023-08-06T11:12:39;1.40;;;1.20;;
9938;SDS011;5008;50.656;7.188;2023-08-06T11:15:06;1.97;;;1.10;;
9938;SDS011;5008;50.656;7.188;2023-08-06T11:17:34;1.40;;;1.13;;
9938;SDS011;5008;50.656;7.188;2023-08-06T11:20:01;2.50;;;1.20;;
9938;SDS011;5008;50.656;7.188;2023-08-06T11:22:30;3.43;;;1.37;;
9938;SDS011;5008;50.656;7.188;2023-08-06T11:24:58;3.43;;;1.20;;
9938;SDS011;5008;50.656;7.188;2023-08-06T11:27:26;3.03;;;1.20;;
9938;SDS011;5008;50.656;7.188;2023-08-06T11:29:54;3.90;;;1.87;;
9938;SDS011;5008;50.656;7.188;2023-08-06T11:32:25;3.07;;;1.60;;
9938;SDS011;5008;50.656;7.188;2023-08-06T11:34:53;1.20;;;0.97;;
9938;SDS011;5008;50.656;7.188;2023-08-06T11:37:21;2.92;;;1.02;;
9938;SDS011;5008;50.656;7.188;2023-08-06T11:39:49;2.07;;;1.63;;
9938;SDS011;5008;50.656;7.188;2023-08-06T11:42:17;2.60;;;1.50;;
9938;SDS011;5008;50.656;7.188;2023-08-06T11:44:44;3.57;;;1.73;;
9938;SDS011;5008;50.656;7.188;2023-08-06T11:47:12;3.43;;;1.50;;
9938;SDS011;5008;50.656;7.188;2023-08-06T11:49:41;2.17;;;1.30;;
9938;SDS011;5008;50.656;7.188;2023-08-06T11:52:10;3.90;;;1.77;;
9938;SDS011;5008;50.656;7.188;2023-08-06T11:54:39;1.83;;;1.30;;
9938;SDS011;5008;50.656;7.188;2023-08-06T11:57:07;1.97;;;1.30;;
9938;SDS011;5008;50.656;7.188;2023-08-06T11:59:36;3.27;;;1.40;;
9938;SDS011;5008;50.656;7.188;2023-08-06T12:02:04;2.57;;;1.20;;
9938;SDS011;5008;50.656;7.188;2023-08-06T12:07:31;2.03;;;1.30;;
9938;SDS011;5008;50.656;7.188;2023-08-06T12:10:02;1.43;;;1.30;;
9938;SDS011;5008;50.656;7.188;2023-08-06T12:12:29;1.70;;;1.30;;
9938;SDS011;5008;50.656;7.188;2023-08-06T12:14:58;1.47;;;1.30;;
9938;SDS011;5008;50.656;7.188;2023-08-06T12:17:25;1.63;;;1.30;;
9938;SDS011;5008;50.656;7.188;2023-08-06T12:19:53;3.28;;;1.63;;
9938;SDS011;5008;50.656;7.188;2023-08-06T12:22:20;2.30;;;1.30;;
9938;SDS011;5008;50.656;7.188;2023-08-06T12:24:47;2.03;;;1.80;;
9938;SDS011;5008;50.656;7.188;2023-08-06T12:27:16;1.35;;;1.23;;
9938;SDS011;5008;50.656;7.188;2023-08-06T12:29:44;1.65;;;1.40;;
9938;SDS011;5008;50.656;7.188;2023-08-06T12:32:16;2.10;;;1.37;;
9938;SDS011;5008;50.656;7.188;2023-08-06T12:34:44;1.77;;;1.23;;
9938;SDS011;5008;50.656;7.188;2023-08-06T12:37:11;1.50;;;1.40;;
9938;SDS011;5008;50.656;7.188;2023-08-06T12:39:38;1.63;;;1.53;;
9938;SDS011;5008;50.656;7.188;2023-08-06T12:42:06;2.30;;;1.20;;
9938;SDS011;5008;50.656;7.188;2023-08-06T12:44:33;1.87;;;1.40;;
9938;SDS011;5008;50.656;7.188;2023-08-06T12:47:02;1.80;;;1.33;;
9938;SDS011;5008;50.656;7.188;2023-08-06T12:49:30;2.25;;;1.40;;
9938;SDS011;5008;50.656;7.188;2023-08-06T12:51:59;1.42;;;1.25;;
9938;SDS011;5008;50.656;7.188;2023-08-06T12:54:26;2.63;;;1.63;;
9938;SDS011;5008;50.656;7.188;2023-08-06T12:56:53;1.70;;;1.60;;
9938;SDS011;5008;50.656;7.188;2023-08-06T12:59:20;2.63;;;1.70;;
9938;SDS011;5008;50.656;7.188;2023-08-06T13:01:47;3.17;;;1.97;;
9938;SDS011;5008;50.656;7.188;2023-08-06T13:04:14;2.20;;;1.67;;
9938;SDS011;5008;50.656;7.188;2023-08-06T13:06:43;1.85;;;1.70;;
9938;SDS011;5008;50.656;7.188;2023-08-06T13:09:10;1.73;;;1.63;;
9938;SDS011;5008;50.656;7.188;2023-08-06T13:11:38;1.98;;;1.63;;
9938;SDS011;5008;50.656;7.188;2023-08-06T13:14:06;2.50;;;1.33;;
9938;SDS011;5008;50.656;7.188;2023-08-06T13:16:34;2.03;;;1.70;;
9938;SDS011;5008;50.656;7.188;2023-08-06T13:19:02;2.40;;;1.70;;
9938;SDS011;5008;50.656;7.188;2023-08-06T13:21:31;2.80;;;1.60;;
9938;SDS011;5008;50.656;7.188;2023-08-06T13:24:00;2.78;;;1.40;;
9938;SDS011;5008;50.656;7.188;2023-08-06T13:26:28;1.25;;;1.15;;
9938;SDS011;5008;50.656;7.188;2023-08-06T13:28:56;1.38;;;1.00;;
9938;SDS011;5008;50.656;7.188;2023-08-06T13:31:24;1.30;;;0.80;;
9938;SDS011;5008;50.656;7.188;2023-08-06T13:33:51;1.25;;;0.82;;
9938;SDS011;5008;50.656;7.188;2023-08-06T13:36:19;1.27;;;0.80;;
9938;SDS011;5008;50.656;7.188;2023-08-06T13:38:47;1.42;;;0.90;;
9938;SDS011;5008;50.656;7.188;2023-08-06T13:41:15;1.67;;;1.13;;
9938;SDS011;5008;50.656;7.188;2023-08-06T13:43:43;1.35;;;1.08;;
9938;SDS011;5008;50.656;7.188;2023-08-06T13:46:10;1.20;;;1.10;;
9938;SDS011;5008;50.656;7.188;2023-08-06T13:48:40;2.72;;;1.35;;
9938;SDS011;5008;50.656;7.188;2023-08-06T13:51:07;1.30;;;1.15;;
9938;SDS011;5008;50.656;7.188;2023-08-06T13:53:34;2.60;;;1.40;;
9938;SDS011;5008;50.656;7.188;2023-08-06T13:56:01;1.60;;;1.30;;
9938;SDS011;5008;50.656;7.188;2023-08-06T13:58:29;1.90;;;1.50;;
9938;SDS011;5008;50.656;7.188;2023-08-06T14:00:56;1.37;;;1.27;;
9938;SDS011;5008;50.656;7.188;2023-08-06T14:03:23;2.23;;;1.60;;
9938;SDS011;5008;50.656;7.188;2023-08-06T14:05:50;1.40;;;1.30;;
9938;SDS011;5008;50.656;7.188;2023-08-06T14:08:17;3.28;;;1.67;;
9938;SDS011;5008;50.656;7.188;2023-08-06T14:10:44;3.65;;;2.00;;
9938;SDS011;5008;50.656;7.188;2023-08-06T14:13:11;5.25;;;1.60;;
9938;SDS011;5008;50.656;7.188;2023-08-06T14:15:40;1.73;;;1.63;;
9938;SDS011;5008;50.656;7.188;2023-08-06T14:18:12;3.97;;;1.50;;
9938;SDS011;5008;50.656;7.188;2023-08-06T14:20:40;1.80;;;1.27;;
9938;SDS011;5008;50.656;7.188;2023-08-06T14:23:18;2.92;;;1.60;;
9938;SDS011;5008;50.656;7.188;2023-08-06T14:25:46;2.13;;;1.23;;
9938;SDS011;5008;50.656;7.188;2023-08-06T14:28:13;1.50;;;1.40;;
9938;SDS011;5008;50.656;7.188;2023-08-06T14:30:41;1.65;;;1.50;;
9938;SDS011;5008;50.656;7.188;2023-08-06T14:33:08;2.00;;;1.17;;
9938;SDS011;5008;50.656;7.188;2023-08-06T14:35:35;1.73;;;1.17;;
9938;SDS011;5008;50.656;7.188;2023-08-06T14:38:02;2.53;;;1.25;;
9938;SDS011;5008;50.656;7.188;2023-08-06T14:40:28;1.42;;;0.88;;
9938;SDS011;5008;50.656;7.188;2023-08-06T14:42:59;2.00;;;1.20;;
9938;SDS011;5008;50.656;7.188;2023-08-06T14:45:26;2.20;;;1.23;;
9938;SDS011;5008;50.656;7.188;2023-08-06T14:47:54;3.30;;;1.05;;
9938;SDS011;5008;50.656;7.188;2023-08-06T14:50:21;1.37;;;0.90;;
9938;SDS011;5008;50.656;7.188;2023-08-06T14:52:48;2.58;;;1.08;;
9938;SDS011;5008;50.656;7.188;2023-08-06T14:55:17;1.52;;;0.93;;
9938;SDS011;5008;50.656;7.188;2023-08-06T14:57:49;0.73;;;0.73;;
9938;SDS011;5008;50.656;7.188;2023-08-06T15:00:17;4.03;;;1.17;;
9938;SDS011;5008;50.656;7.188;2023-08-06T15:02:44;1.67;;;1.08;;
9938;SDS011;5008;50.656;7.188;2023-08-06T15:05:12;0.47;;;0.47;;
9938;SDS011;5008;50.656;7.188;2023-08-06T15:07:40;1.10;;;1.00;;
9938;SDS011;5008;50.656;7.188;2023-08-06T15:10:09;0.60;;;0.60;;
9938;SDS011;5008;50.656;7.188;2023-08-06T15:12:36;0.98;;;0.90;;
9938;SDS011;5008;50.656;7.188;2023-08-06T15:15:05;0.40;;;0.40;;
9938;SDS011;5008;50.656;7.188;2023-08-06T15:17:33;1.00;;;0.90;;
9938;SDS011;5008;50.656;7.188;2023-08-06T15:20:00;0.63;;;0.60;;
9938;SDS011;5008;50.656;7.188;2023-08-06T15:22:28;1.90;;;0.77;;
9938;SDS011;5008;50.656;7.188;2023-08-06T15:24:56;0.40;;;0.40;;
9938;SDS011;5008;50.656;7.188;2023-08-06T15:27:23;0.93;;;0.40;;
9938;SDS011;5008;50.656;7.188;2023-08-06T15:29:50;0.30;;;0.30;;
9938;SDS011;5008;50.656;7.188;2023-08-06T15:32:17;0.30;;;0.30;;
9938;SDS011;5008;50.656;7.188;2023-08-06T15:34:45;0.43;;;0.43;;
9938;SDS011;5008;50.656;7.188;2023-08-06T15:37:13;0.90;;;0.50;;
9938;SDS011;5008;50.656;7.188;2023-08-06T15:39:42;0.35;;;0.35;;
9938;SDS011;5008;50.656;7.188;2023-08-06T15:42:08;0.32;;;0.30;;
9938;SDS011;5008;50.656;7.188;2023-08-06T15:44:35;1.80;;;0.50;;
9938;SDS011;5008;50.656;7.188;2023-08-06T15:47:02;0.60;;;0.50;;
9938;SDS011;5008;50.656;7.188;2023-08-06T15:49:29;1.13;;;0.70;;
9938;SDS011;5008;50.656;7.188;2023-08-06T15:51:56;0.60;;;0.60;;
9938;SDS011;5008;50.656;7.188;2023-08-06T15:54:23;0.98;;;0.88;;
9938;SDS011;5008;50.656;7.188;2023-08-06T15:56:51;0.50;;;0.50;;
9938;SDS011;5008;50.656;7.188;2023-08-06T15:59:21;0.82;;;0.82;;
9938;SDS011;5008;50.656;7.188;2023-08-06T16:01:49;0.70;;;0.68;;
9938;SDS011;5008;50.656;7.188;2023-08-06T16:04:16;0.70;;;0.65;;
9938;SDS011;5008;50.656;7.188;2023-08-06T16:06:43;1.35;;;1.25;;
9938;SDS011;5008;50.656;7.188;2023-08-06T16:09:11;0.93;;;0.88;;
9938;SDS011;5008;50.656;7.188;2023-08-06T16:11:38;0.85;;;0.85;;
9938;SDS011;5008;50.656;7.188;2023-08-06T16:14:06;1.02;;;0.73;;
9938;SDS011;5008;50.656;7.188;2023-08-06T16:16:33;0.70;;;0.70;;
9938;SDS011;5008;50.656;7.188;2023-08-06T16:19:00;1.42;;;0.80;;
9938;SDS011;5008;50.656;7.188;2023-08-06T16:21:27;1.00;;;0.90;;
9938;SDS011;5008;50.656;7.188;2023-08-06T16:23:54;0.82;;;0.70;;
9938;SDS011;5008;50.656;7.188;2023-08-06T16:26:21;0.80;;;0.80;;
9938;SDS011;5008;50.656;7.188;2023-08-06T16:28:48;0.47;;;0.47;;
9938;SDS011;5008;50.656;7.188;2023-08-06T16:31:16;0.73;;;0.45;;